createdAt,value
2017-09-07T00:01:50.705Z,94991.28
2017-09-07T00:04:19.146Z,94990.64
2017-09-07T00:06:47.510Z,94983.48
2017-09-07T00:09:16.034Z,94983.44
2017-09-07T00:11:44.426Z,94983.13
2017-09-07T00:14:12.821Z,94984.64
2017-09-07T00:16:41.150Z,94981.86
2017-09-07T00:19:09.602Z,94963.86
2017-09-07T00:21:37.942Z,94972.66
2017-09-07T00:24:06.382Z,94971.69
2017-09-07T00:26:34.774Z,94971.22
2017-09-07T00:29:03.193Z,94968.43
2017-09-07T00:31:31.550Z,94970.41
2017-09-07T00:33:59.942Z,94971.30
2017-09-07T00:36:28.330Z,94968.65
2017-09-07T00:38:56.738Z,94968.61
2017-09-07T00:41:25.071Z,94968.63
2017-09-07T00:43:53.511Z,94966.82
2017-09-07T00:46:21.878Z,94969.52
2017-09-07T00:48:50.290Z,94968.02
2017-09-07T00:51:18.658Z,94968.05
2017-09-07T00:53:47.078Z,94969.39
2017-09-07T00:56:15.478Z,94952.42
2017-09-07T00:58:43.842Z,94947.15
2017-09-07T01:01:12.182Z,94945.60
2017-09-07T01:03:40.546Z,94954.48
2017-09-07T01:06:08.935Z,94957.55
2017-09-07T01:08:37.342Z,94956.66
2017-09-07T01:11:05.713Z,94959.06
2017-09-07T01:13:34.098Z,94961.81
2017-09-07T01:16:02.810Z,94957.45
2017-09-07T01:18:31.157Z,94953.98
2017-09-07T01:20:59.489Z,94955.54
2017-09-07T01:23:27.838Z,94957.73
2017-09-07T01:25:56.271Z,94957.07
2017-09-07T01:28:24.762Z,94952.95
2017-09-07T01:30:53.108Z,94950.53
2017-09-07T01:33:21.450Z,94953.38
2017-09-07T01:35:49.859Z,94953.54
2017-09-07T01:38:18.227Z,94948.63
2017-09-07T01:40:46.614Z,94941.39
2017-09-07T01:43:15.016Z,94944.02
2017-09-07T01:45:43.359Z,94937.29
2017-09-07T01:48:23.579Z,94938.72
2017-09-07T01:50:51.942Z,94936.81
2017-09-07T01:53:20.350Z,94939.58
2017-09-07T01:55:48.754Z,94936.59
2017-09-07T01:58:17.238Z,94938.36
2017-09-07T02:00:45.593Z,94941.99
2017-09-07T02:03:13.974Z,94934.45
2017-09-07T02:05:42.318Z,94937.45
2017-09-07T02:08:10.699Z,94939.61
2017-09-07T02:10:39.052Z,94932.81
2017-09-07T02:13:07.490Z,94937.59
2017-09-07T02:15:35.873Z,94933.59
2017-09-07T02:18:04.274Z,94934.14
2017-09-07T02:20:32.666Z,94936.00
2017-09-07T02:23:01.455Z,94935.05
2017-09-07T02:25:29.863Z,94937.45
2017-09-07T02:27:58.202Z,94936.98
2017-09-07T02:30:26.651Z,94941.94
2017-09-07T02:32:54.999Z,94943.66
2017-09-07T02:35:23.414Z,94937.47
2017-09-07T02:37:51.758Z,94941.23
2017-09-07T02:40:20.152Z,94942.73
2017-09-07T02:42:48.585Z,94940.34
2017-09-07T02:45:16.978Z,94939.09
2017-09-07T02:47:45.362Z,94938.53
2017-09-07T02:50:13.768Z,94941.07
2017-09-07T02:52:42.150Z,94935.39
2017-09-07T02:55:10.528Z,94942.42
2017-09-07T02:57:38.964Z,94934.14
2017-09-07T03:00:07.316Z,94936.38
2017-09-07T03:02:35.721Z,94940.39
2017-09-07T03:05:04.116Z,94941.74
2017-09-07T03:07:32.623Z,94937.82
2017-09-07T03:10:00.966Z,94938.20
2017-09-07T03:12:29.392Z,94934.11
2017-09-07T03:14:57.738Z,94936.17
2017-09-07T03:17:26.171Z,94934.67
2017-09-07T03:19:54.578Z,94942.64
2017-09-07T03:22:22.950Z,94937.55
2017-09-07T03:24:51.322Z,94941.09
2017-09-07T03:27:19.734Z,94938.89
2017-09-07T03:29:48.110Z,94937.82
2017-09-07T03:32:16.460Z,94931.13
2017-09-07T03:34:44.843Z,94925.96
2017-09-07T03:37:13.219Z,94921.34
2017-09-07T03:39:41.876Z,94925.48
2017-09-07T03:42:10.323Z,94925.23
2017-09-07T03:44:38.786Z,94918.89
2017-09-07T03:47:07.183Z,94920.52
2017-09-07T03:49:35.563Z,94918.16
2017-09-07T03:52:03.907Z,94924.67
2017-09-07T03:54:32.287Z,94916.05
2017-09-07T03:57:00.662Z,94919.20
2017-09-07T03:59:29.040Z,94919.25
2017-09-07T04:01:57.445Z,94912.48
2017-09-07T04:04:25.807Z,94921.39
2017-09-07T04:06:54.202Z,94922.86
2017-09-07T04:09:22.542Z,94921.64
2017-09-07T04:11:50.923Z,94918.55
2017-09-07T04:14:19.366Z,94917.41
2017-09-07T04:16:47.747Z,94921.47
2017-09-07T04:19:16.154Z,94916.73
2017-09-07T04:21:44.535Z,94914.19
2017-09-07T04:24:12.942Z,94913.56
2017-09-07T04:26:41.307Z,94921.47
2017-09-07T04:29:09.642Z,94921.56
2017-09-07T04:31:37.985Z,94922.24
2017-09-07T04:34:06.359Z,94919.92
2017-09-07T04:36:34.720Z,94922.50
2017-09-07T04:39:03.111Z,94924.28
2017-09-07T04:41:31.482Z,94924.75
2017-09-07T04:43:59.845Z,94919.10
2017-09-07T04:46:28.667Z,94918.63
2017-09-07T04:48:57.039Z,94917.55
2017-09-07T04:51:25.416Z,94918.94
2017-09-07T04:53:53.838Z,94923.59
2017-09-07T04:56:22.950Z,94916.52
2017-09-07T04:58:51.341Z,94912.72
2017-09-07T05:01:19.738Z,94916.95
2017-09-07T05:03:48.126Z,94911.44
2017-09-07T05:06:16.521Z,94924.37
2017-09-07T05:08:44.907Z,94920.36
2017-09-07T05:11:13.294Z,94924.49
2017-09-07T05:13:41.693Z,94925.31
2017-09-07T05:16:10.286Z,94923.03
2017-09-07T05:18:38.631Z,94928.84
2017-09-07T05:21:07.050Z,94928.20
2017-09-07T05:23:35.509Z,94928.25
2017-09-07T05:26:03.950Z,94928.94
2017-09-07T05:28:32.356Z,94937.98
2017-09-07T05:31:00.731Z,94930.28
2017-09-07T05:33:29.115Z,94934.59
2017-09-07T05:35:57.469Z,94942.47
2017-09-07T05:38:25.812Z,94941.43
2017-09-07T05:40:54.155Z,94945.63
2017-09-07T05:43:22.503Z,94941.91
2017-09-07T05:45:50.903Z,94941.44
2017-09-07T05:48:19.251Z,94941.78
2017-09-07T05:50:47.594Z,94941.26
2017-09-07T05:53:16.055Z,94940.66
2017-09-07T05:55:44.430Z,94939.79
2017-09-07T05:58:12.820Z,94942.64
2017-09-07T06:00:41.169Z,94937.28
2017-09-07T06:03:09.545Z,94939.42
2017-09-07T06:05:37.884Z,94941.41
2017-09-07T06:08:06.230Z,94940.00
2017-09-07T06:10:34.606Z,94949.18
2017-09-07T06:13:03.286Z,94949.34
2017-09-07T06:15:31.677Z,94948.88
2017-09-07T06:18:00.062Z,94946.59
2017-09-07T06:20:28.412Z,94947.37
2017-09-07T06:22:56.846Z,94952.20
2017-09-07T06:25:25.190Z,94947.67
2017-09-07T06:27:53.554Z,94952.55
2017-09-07T06:30:21.911Z,94947.41
2017-09-07T06:32:50.301Z,94948.05
2017-09-07T06:35:18.806Z,94943.97
2017-09-07T06:37:47.193Z,94954.77
2017-09-07T06:40:15.549Z,94948.59
2017-09-07T06:42:44.008Z,94956.39
2017-09-07T06:45:12.366Z,94960.20
2017-09-07T06:47:40.710Z,94961.41
2017-09-07T06:50:09.155Z,94956.50
2017-09-07T06:52:37.554Z,94952.33
2017-09-07T06:55:05.930Z,94958.55
2017-09-07T06:57:34.274Z,94957.64
2017-09-07T07:00:03.019Z,94958.64
2017-09-07T07:02:31.394Z,94953.01
2017-09-07T07:04:59.750Z,94957.73
2017-09-07T07:07:28.123Z,94953.85
2017-09-07T07:09:56.474Z,94963.59
2017-09-07T07:12:25.286Z,94959.88
2017-09-07T07:14:53.678Z,94963.08
2017-09-07T07:17:22.202Z,94962.66
2017-09-07T07:19:50.746Z,94962.95
2017-09-07T07:22:19.153Z,94968.88
2017-09-07T07:24:47.538Z,94969.27
2017-09-07T07:27:15.897Z,94966.02
2017-09-07T07:29:44.343Z,94967.27
2017-09-07T07:32:12.704Z,94974.71
2017-09-07T07:34:41.075Z,94970.81
2017-09-07T07:37:09.510Z,94969.87
2017-09-07T07:39:37.863Z,94969.16
2017-09-07T07:42:06.263Z,94974.27
2017-09-07T07:44:34.607Z,94978.91
2017-09-07T07:47:03.278Z,94981.06
2017-09-07T07:49:31.666Z,94979.47
2017-09-07T07:52:00.014Z,94980.72
2017-09-07T07:54:28.403Z,94975.55
2017-09-07T07:56:56.785Z,94977.32
2017-09-07T07:59:25.177Z,94981.23
2017-09-07T08:01:53.525Z,94981.06
2017-09-07T08:04:21.914Z,94975.09
2017-09-07T08:06:50.306Z,94979.11
2017-09-07T08:09:18.711Z,94983.15
2017-09-07T08:11:47.323Z,94988.36
2017-09-07T08:14:15.786Z,94988.73
2017-09-07T08:16:44.194Z,94991.61
2017-09-07T08:19:12.539Z,94983.61
2017-09-07T08:21:40.954Z,94988.46
2017-09-07T08:24:09.358Z,94986.23
2017-09-07T08:26:37.842Z,94987.54
2017-09-07T08:29:06.203Z,94982.12
2017-09-07T08:31:34.631Z,94992.02
2017-09-07T08:34:03.002Z,94988.08
2017-09-07T08:36:31.418Z,94988.10
2017-09-07T08:38:59.779Z,94991.61
2017-09-07T08:41:28.120Z,94991.26
2017-09-07T08:43:56.486Z,94988.09
2017-09-07T08:46:24.984Z,94992.47
2017-09-07T08:48:53.323Z,94984.52
2017-09-07T08:51:21.800Z,94988.36
2017-09-07T08:53:50.130Z,94986.78
2017-09-07T08:56:18.573Z,94989.77
2017-09-07T08:58:46.939Z,94985.09
2017-09-07T09:01:15.322Z,94979.17
2017-09-07T09:03:43.670Z,94980.14
2017-09-07T09:06:12.011Z,94980.67
2017-09-07T09:08:40.395Z,94983.42
2017-09-07T09:11:40.843Z,94983.78
2017-09-07T09:14:09.211Z,94987.23
2017-09-07T09:16:37.550Z,94985.41
2017-09-07T09:19:05.915Z,94982.72
2017-09-07T09:21:34.311Z,94980.80
2017-09-07T09:24:02.650Z,94984.06
2017-09-07T09:26:31.186Z,94981.22
2017-09-07T09:28:59.526Z,94988.21
2017-09-07T09:31:27.910Z,94982.87
2017-09-07T09:33:56.362Z,94989.24
2017-09-07T09:36:24.758Z,94992.20
2017-09-07T09:38:53.142Z,94985.40
2017-09-07T09:41:21.478Z,94985.52
2017-09-07T09:43:49.830Z,94982.72
2017-09-07T09:46:18.671Z,94980.97
2017-09-07T09:48:47.018Z,94979.94
2017-09-07T09:51:15.358Z,94979.60
2017-09-07T09:53:43.727Z,94983.98
2017-09-07T09:56:12.115Z,94985.08
2017-09-07T09:58:40.458Z,94982.67
2017-09-07T10:01:08.874Z,94985.77
2017-09-07T10:03:37.243Z,94984.69
2017-09-07T10:06:05.707Z,94985.52
2017-09-07T10:08:34.154Z,94976.45
2017-09-07T10:11:02.521Z,94982.48
2017-09-07T10:13:30.938Z,94978.33
2017-09-07T10:15:59.291Z,94974.70
2017-09-07T10:18:27.671Z,94968.70
2017-09-07T10:20:56.015Z,94974.02
2017-09-07T10:23:24.380Z,94963.40
2017-09-07T10:25:52.755Z,94970.55
2017-09-07T10:28:21.129Z,94964.67
2017-09-07T10:30:49.474Z,94970.03
2017-09-07T10:33:17.841Z,94967.01
2017-09-07T10:35:46.183Z,94971.63
2017-09-07T10:38:14.654Z,94965.94
2017-09-07T10:40:42.993Z,94964.89
2017-09-07T10:43:11.388Z,94960.28
2017-09-07T10:45:39.761Z,94954.84
2017-09-07T10:48:08.086Z,94959.22
2017-09-07T10:50:36.426Z,94954.16
2017-09-07T10:53:04.770Z,94955.48
2017-09-07T10:55:33.170Z,94954.94
2017-09-07T10:58:01.519Z,94959.01
2017-09-07T11:00:29.921Z,94946.60
2017-09-07T11:02:58.352Z,94946.37
2017-09-07T11:05:27.155Z,94938.53
2017-09-07T11:07:55.497Z,94939.00
2017-09-07T11:10:23.934Z,94936.14
2017-09-07T11:12:52.644Z,94938.16
2017-09-07T11:15:21.027Z,94936.36
2017-09-07T11:17:49.419Z,94939.48
2017-09-07T11:20:17.756Z,94930.92
2017-09-07T11:22:46.118Z,94931.89
2017-09-07T11:25:14.462Z,94929.06
2017-09-07T11:27:43.395Z,94935.33
2017-09-07T11:30:11.787Z,94925.54
2017-09-07T11:32:40.171Z,94931.08
2017-09-07T11:35:08.567Z,94924.00
2017-09-07T11:37:36.951Z,94918.72
2017-09-07T11:40:05.334Z,94916.55
2017-09-07T11:42:34.755Z,94917.55
2017-09-07T11:45:03.120Z,94919.25
2017-09-07T11:47:31.642Z,94917.33
2017-09-07T11:49:59.978Z,94912.84
2017-09-07T11:52:28.458Z,94907.64
2017-09-07T11:54:56.816Z,94918.91
2017-09-07T11:57:25.149Z,94921.10
2017-09-07T11:59:53.522Z,94919.64
2017-09-07T12:02:21.870Z,94921.28
2017-09-07T12:04:50.201Z,94920.08
2017-09-07T12:07:18.548Z,94915.95
2017-09-07T12:09:46.888Z,94914.97
2017-09-07T12:12:15.251Z,94917.98
2017-09-07T12:14:43.626Z,94916.56
2017-09-07T12:17:11.964Z,94918.64
2017-09-07T12:19:40.315Z,94920.73
2017-09-07T12:22:08.701Z,94921.40
2017-09-07T12:24:37.054Z,94924.53
2017-09-07T12:27:05.395Z,94923.36
2017-09-07T12:29:33.766Z,94921.34
2017-09-07T12:32:02.431Z,94914.38
2017-09-07T12:34:30.795Z,94901.19
2017-09-07T12:36:59.170Z,94905.60
2017-09-07T12:39:27.506Z,94899.83
2017-09-07T12:41:55.854Z,94898.75
2017-09-07T12:44:24.190Z,94897.27
2017-09-07T12:46:52.630Z,94893.51
2017-09-07T12:49:21.023Z,94896.16
2017-09-07T12:51:49.390Z,94896.64
2017-09-07T12:54:17.734Z,94899.28
2017-09-07T12:56:46.121Z,94898.70
2017-09-07T12:59:14.543Z,94902.98
2017-09-07T13:01:43.006Z,94900.30
2017-09-07T13:04:11.381Z,94896.04
2017-09-07T13:06:39.713Z,94898.78
2017-09-07T13:09:08.194Z,94899.42
2017-09-07T13:11:36.535Z,94901.98
2017-09-07T13:14:04.883Z,94899.66
2017-09-07T13:16:33.226Z,94896.72
2017-09-07T13:19:01.594Z,94900.48
2017-09-07T13:21:30.006Z,94898.66
2017-09-07T13:23:58.397Z,94895.20
2017-09-07T13:26:26.806Z,94906.77
2017-09-07T13:28:55.190Z,94899.77
2017-09-07T13:31:23.550Z,94892.24
2017-09-07T13:33:51.930Z,94891.03
2017-09-07T13:36:20.291Z,94889.33
2017-09-07T13:38:48.630Z,94892.07
2017-09-07T13:41:17.031Z,94897.08
2017-09-07T13:43:45.366Z,94896.66
2017-09-07T13:46:13.783Z,94888.60
2017-09-07T13:48:42.154Z,94890.05
2017-09-07T13:51:10.518Z,94884.89
2017-09-07T13:53:38.858Z,94879.14
2017-09-07T13:56:07.239Z,94880.45
2017-09-07T13:58:35.582Z,94880.94
2017-09-07T14:01:03.923Z,94881.54
2017-09-07T14:03:32.262Z,94882.90
2017-09-07T14:06:05.830Z,94874.41
2017-09-07T14:08:34.254Z,94864.67
2017-09-07T14:11:02.750Z,94864.37
2017-09-07T14:13:31.119Z,94866.53
2017-09-07T14:15:59.458Z,94857.46
2017-09-07T14:18:27.798Z,94857.97
2017-09-07T14:20:56.337Z,94854.20
2017-09-07T14:23:24.670Z,94855.48
2017-09-07T14:25:53.014Z,94859.59
2017-09-07T14:28:21.387Z,94857.13
2017-09-07T14:30:49.758Z,94851.25
2017-09-07T14:33:18.518Z,94860.19
2017-09-07T14:35:46.972Z,94862.17
2017-09-07T14:38:15.319Z,94863.35
2017-09-07T14:40:43.658Z,94864.45
2017-09-07T14:43:12.046Z,94862.13
2017-09-07T14:45:40.382Z,94860.94
2017-09-07T14:48:08.781Z,94859.56
2017-09-07T14:50:37.214Z,94865.54
2017-09-07T14:53:05.695Z,94864.91
2017-09-07T14:55:34.033Z,94861.14
2017-09-07T14:58:02.365Z,94863.45
2017-09-07T15:00:30.710Z,94863.65
2017-09-07T15:02:59.047Z,94858.10
2017-09-07T15:05:27.457Z,94865.46
2017-09-07T15:07:55.794Z,94865.94
2017-09-07T15:10:24.137Z,94867.17
2017-09-07T15:12:52.474Z,94862.59
2017-09-07T15:15:20.917Z,94858.73
2017-09-07T15:17:49.409Z,94854.70
2017-09-07T15:20:17.750Z,94860.22
2017-09-07T15:22:46.090Z,94856.54
2017-09-07T15:25:14.434Z,94851.63
2017-09-07T15:27:42.770Z,94858.88
2017-09-07T15:30:11.142Z,94846.80
2017-09-07T15:32:39.530Z,94844.62
2017-09-07T15:35:07.867Z,94846.70
2017-09-07T15:37:36.342Z,94840.70
2017-09-07T15:40:04.714Z,94847.14
2017-09-07T15:42:33.049Z,94843.00
2017-09-07T15:45:01.511Z,94840.94
2017-09-07T15:47:30.115Z,94844.56
2017-09-07T15:49:58.449Z,94848.95
2017-09-07T15:52:26.782Z,94841.39
2017-09-07T15:54:55.126Z,94848.13
2017-09-07T15:57:23.487Z,94842.53
2017-09-07T15:59:57.086Z,94843.94
2017-09-07T16:02:25.457Z,94844.70
2017-09-07T16:04:53.842Z,94847.93
2017-09-07T16:07:22.259Z,94848.08
2017-09-07T16:09:50.618Z,94843.78
2017-09-07T16:12:18.983Z,94844.80
2017-09-07T16:14:47.337Z,94843.29
2017-09-07T16:17:15.720Z,94840.94
2017-09-07T16:19:44.090Z,94843.39
2017-09-07T16:22:12.511Z,94839.24
2017-09-07T16:24:40.874Z,94838.58
2017-09-07T16:27:09.287Z,94829.88
2017-09-07T16:29:37.658Z,94825.55
2017-09-07T16:32:06.122Z,94831.61
2017-09-07T16:34:34.471Z,94829.80
2017-09-07T16:37:02.827Z,94823.05
2017-09-07T16:39:31.167Z,94817.84
2017-09-07T16:41:59.634Z,94824.07
2017-09-07T16:44:27.974Z,94820.91
2017-09-07T16:46:56.354Z,94810.50
2017-09-07T16:49:24.723Z,94809.63
2017-09-07T16:51:53.057Z,94810.53
2017-09-07T16:54:21.499Z,94809.86
2017-09-07T16:56:49.837Z,94801.04
2017-09-07T16:59:18.182Z,94803.39
2017-09-07T17:01:46.526Z,94805.36
2017-09-07T17:04:14.879Z,94802.09
2017-09-07T17:06:43.242Z,94794.82
2017-09-07T17:09:11.634Z,94796.27
2017-09-07T17:11:39.979Z,94792.64
2017-09-07T17:14:08.349Z,94792.98
2017-09-07T17:16:36.728Z,94799.61
2017-09-07T17:19:05.092Z,94790.56
2017-09-07T17:21:33.429Z,94795.60
2017-09-07T17:24:01.880Z,94790.45
2017-09-07T17:26:30.222Z,94787.98
2017-09-07T17:28:58.590Z,94795.03
2017-09-07T17:31:26.967Z,94787.34
2017-09-07T17:33:55.312Z,94789.30
2017-09-07T17:36:23.650Z,94794.87
2017-09-07T17:38:52.053Z,94792.56
2017-09-07T17:41:20.384Z,94783.72
2017-09-07T17:43:48.745Z,94786.70
2017-09-07T17:46:17.090Z,94792.46
2017-09-07T17:48:45.471Z,94793.50
2017-09-07T17:51:13.815Z,94795.20
2017-09-07T17:53:42.146Z,94792.86
2017-09-07T17:56:10.486Z,94798.59
2017-09-07T17:58:38.862Z,94800.55
2017-09-07T18:01:07.257Z,94799.88
2017-09-07T18:03:35.630Z,94808.20
2017-09-07T18:06:03.974Z,94811.69
2017-09-07T18:08:32.322Z,94811.95
2017-09-07T18:11:00.658Z,94811.16
2017-09-07T18:13:29.027Z,94809.08
2017-09-07T18:15:57.368Z,94817.56
2017-09-07T18:18:25.800Z,94820.02
2017-09-07T18:20:54.176Z,94805.98
2017-09-07T18:23:22.529Z,94810.55
2017-09-07T18:25:50.946Z,94809.36
2017-09-07T18:28:19.718Z,94808.31
2017-09-07T18:30:48.142Z,94801.16
2017-09-07T18:33:16.650Z,94803.25
2017-09-07T18:35:45.239Z,94820.77
2017-09-07T18:38:13.621Z,94811.82
2017-09-07T18:40:41.960Z,94809.63
2017-09-07T18:43:10.406Z,94803.51
2017-09-07T18:45:38.783Z,94808.17
2017-09-07T18:48:07.123Z,94804.14
2017-09-07T18:50:35.457Z,94803.88
2017-09-07T18:53:03.817Z,94802.87
2017-09-07T18:55:32.182Z,94800.77
2017-09-07T18:58:00.526Z,94801.30
2017-09-07T19:00:28.934Z,94802.59
2017-09-07T19:02:57.275Z,94797.64
2017-09-07T19:05:25.669Z,94801.41
2017-09-07T19:07:54.058Z,94790.13
2017-09-07T19:10:22.449Z,94792.59
2017-09-07T19:12:50.899Z,94793.35
2017-09-07T19:15:19.238Z,94791.94
2017-09-07T19:17:47.670Z,94790.39
2017-09-07T19:20:16.010Z,94790.92
2017-09-07T19:22:44.454Z,94791.70
2017-09-07T19:25:12.858Z,94793.52
2017-09-07T19:27:41.202Z,94794.81
2017-09-07T19:30:09.570Z,94792.59
2017-09-07T19:32:37.930Z,94792.84
2017-09-07T19:35:06.304Z,94788.03
2017-09-07T19:37:34.711Z,94781.53
2017-09-07T19:40:03.095Z,94781.16
2017-09-07T19:42:31.492Z,94778.84
2017-09-07T19:44:59.874Z,94777.16
2017-09-07T19:47:28.216Z,94769.88
2017-09-07T19:49:56.595Z,94774.27
2017-09-07T19:52:24.980Z,94768.45
2017-09-07T19:54:53.333Z,94775.19
2017-09-07T19:57:21.695Z,94772.46
2017-09-07T19:59:50.067Z,94774.94
2017-09-07T20:02:18.453Z,94771.80
2017-09-07T20:04:46.810Z,94765.16
2017-09-07T20:07:15.267Z,94764.38
2017-09-07T20:09:43.610Z,94764.41
2017-09-07T20:12:12.073Z,94758.31
2017-09-07T20:14:40.430Z,94749.34
2017-09-07T20:17:08.869Z,94755.45
2017-09-07T20:19:37.201Z,94752.22
2017-09-07T20:22:05.642Z,94753.53
2017-09-07T20:24:33.983Z,94750.14
2017-09-07T20:27:02.322Z,94740.69
2017-09-07T20:29:30.663Z,94747.27
2017-09-07T20:31:59.041Z,94743.01
2017-09-07T20:34:27.532Z,94741.95
2017-09-07T20:36:56.108Z,94745.69
2017-09-07T20:39:24.467Z,94744.24
2017-09-07T20:41:52.807Z,94739.33
2017-09-07T20:44:21.166Z,94737.23
2017-09-07T20:46:49.538Z,94733.44
2017-09-07T20:49:17.879Z,94732.66
2017-09-07T20:51:46.242Z,94732.41
2017-09-07T20:54:14.638Z,94730.48
2017-09-07T20:56:43.030Z,94723.20
2017-09-07T20:59:11.410Z,94725.39
2017-09-07T21:01:39.750Z,94727.09
2017-09-07T21:04:08.188Z,94726.84
2017-09-07T21:06:38.663Z,94728.67
2017-09-07T21:09:07.222Z,94725.69
2017-09-07T21:11:35.579Z,94713.36
2017-09-07T21:14:03.943Z,94717.38
2017-09-07T21:16:32.310Z,94712.20
2017-09-07T21:19:00.794Z,94716.61
2017-09-07T21:21:29.207Z,94718.81
2017-09-07T21:23:57.576Z,94713.22
2017-09-07T21:26:25.987Z,94720.08
2017-09-07T21:28:54.343Z,94713.48
2017-09-07T21:31:22.706Z,94712.95
2017-09-07T21:33:51.047Z,94717.48
2017-09-07T21:36:19.394Z,94721.16
2017-09-07T21:38:47.726Z,94714.16
2017-09-07T21:41:16.078Z,94703.66
2017-09-07T21:43:44.547Z,94707.03
2017-09-07T21:46:12.878Z,94701.18
2017-09-07T21:48:41.222Z,94698.10
2017-09-07T21:51:09.578Z,94692.66
2017-09-07T21:53:37.978Z,94684.48
2017-09-07T21:56:06.479Z,94674.64
2017-09-07T21:58:34.859Z,94671.13
2017-09-07T22:01:03.214Z,94663.48
2017-09-07T22:03:31.555Z,94659.86
2017-09-07T22:05:59.918Z,94659.48
2017-09-07T22:08:29.242Z,94658.82
2017-09-07T22:10:57.735Z,94652.84
2017-09-07T22:13:26.128Z,94647.78
2017-09-07T22:15:54.526Z,94646.38
2017-09-07T22:18:22.894Z,94637.41
2017-09-07T22:20:54.571Z,94634.70
2017-09-07T22:23:22.946Z,94633.80
2017-09-07T22:25:51.303Z,94633.53
2017-09-07T22:28:19.634Z,94637.30
2017-09-07T22:30:48.150Z,94636.11
2017-09-07T22:33:17.618Z,94638.06
2017-09-07T22:35:46.841Z,94644.80
2017-09-07T22:38:15.738Z,94639.74
2017-09-07T22:40:44.328Z,94636.78
2017-09-07T22:43:12.823Z,94637.94
2017-09-07T22:45:41.783Z,94645.08
2017-09-07T22:48:10.389Z,94634.33
2017-09-07T22:50:39.723Z,94638.08
2017-09-07T22:53:08.772Z,94630.95
2017-09-07T22:55:37.617Z,94634.08
2017-09-07T22:58:06.839Z,94626.42
2017-09-07T23:00:35.675Z,94622.40
2017-09-07T23:03:05.262Z,94624.61
2017-09-07T23:05:33.806Z,94618.14
2017-09-07T23:08:02.506Z,94615.56
2017-09-07T23:10:30.851Z,94609.32
2017-09-07T23:12:59.324Z,94612.06
2017-09-07T23:15:27.658Z,94601.02
2017-09-07T23:17:56.034Z,94605.58
2017-09-07T23:20:24.462Z,94607.26
2017-09-07T23:22:52.806Z,94615.92
2017-09-07T23:25:21.145Z,94607.40
2017-09-07T23:27:49.517Z,94604.80
2017-09-07T23:30:17.852Z,94613.99
2017-09-07T23:32:46.330Z,94608.55
2017-09-07T23:35:14.744Z,94600.52
2017-09-07T23:37:43.082Z,94597.66
2017-09-07T23:40:11.454Z,94596.48
2017-09-07T23:42:39.790Z,94592.48
2017-09-07T23:45:08.159Z,94588.07
2017-09-07T23:47:36.567Z,94586.01
2017-09-07T23:50:04.962Z,94583.80
2017-09-07T23:52:33.323Z,94580.42
2017-09-07T23:55:01.668Z,94573.55
2017-09-07T23:57:30.038Z,94572.39
2017-09-07T23:59:58.431Z,94563.42
